Time;durP1;ratioP1;P1;durP2;ratioP2;P2;SDS_P1;SDS_P2;PMS_P1;PMS_P2;Temp;Humidity;BMP_temperature;BMP_pressure;BME280_temperature;BME280_humidity;BME280_pressure;Samples;Min_cycle;Max_cycle;Signal;HPM_P1;HPM_P2
2021/07/21 00:00:43;;;;;;;9.18;3.35;;;16.60;99.90;;;15.55;95.05;102462.38;4992229;28;20100;-73
2021/07/21 00:03:09;;;;;;;6.65;3.35;;;16.70;99.90;;;15.61;94.59;102453.28;5012018;28;20029;-72
2021/07/21 00:05:37;;;;;;;5.93;3.47;;;16.70;99.90;;;15.60;95.09;102448.91;4996183;28;20079;-72
2021/07/21 00:08:04;;;;;;;17.10;4.35;;;16.70;99.90;;;15.59;95.26;102460.44;5002723;28;20061;-73
2021/07/21 00:10:32;;;;;;;8.52;3.55;;;16.70;99.90;;;15.60;95.21;102464.84;5012595;28;20029;-73
2021/07/21 00:16:36;;;;;;;6.57;3.53;;;16.70;99.90;;;15.64;95.42;102439.03;5012038;28;20718;-73
2021/07/21 00:21:09;;;;;;;7.53;3.15;;;16.80;99.90;;;15.68;95.45;102444.16;5012962;28;20120;-72
2021/07/21 00:23:35;;;;;;;7.85;3.42;;;16.80;99.90;;;15.66;95.36;102439.81;5012278;28;20292;-73
2021/07/21 00:26:01;;;;;;;6.45;3.05;;;16.80;99.90;;;15.68;95.92;102453.88;5014700;28;20721;-72
2021/07/21 00:28:28;;;;;;;7.40;3.30;;;16.80;99.90;;;15.65;95.85;102462.84;5000303;28;20405;-72
2021/07/21 00:30:55;;;;;;;9.77;3.08;;;16.80;99.90;;;15.63;96.34;102435.50;5010275;28;20022;-72
2021/07/21 00:33:21;;;;;;;7.07;2.92;;;16.80;99.90;;;15.62;96.57;102439.09;5010991;28;20114;-72
2021/07/21 00:35:48;;;;;;;7.78;3.63;;;16.80;99.90;;;15.66;96.72;102440.69;5004629;28;20350;-72
2021/07/21 00:38:14;;;;;;;6.00;3.42;;;16.80;99.90;;;15.65;96.46;102432.78;5010509;28;20021;-73
2021/07/21 00:40:40;;;;;;;10.95;3.83;;;16.80;99.90;;;15.63;96.97;102424.88;5011811;28;20021;-72
2021/07/21 00:43:07;;;;;;;7.10;3.17;;;16.70;99.90;;;15.62;96.86;102409.88;4995232;28;20113;-72
2021/07/21 00:45:33;;;;;;;7.00;3.58;;;16.80;99.90;;;15.61;96.85;102418.75;5011337;28;20544;-71
2021/07/21 00:47:59;;;;;;;9.40;3.67;;;16.80;99.90;;;15.59;96.98;102412.66;5011389;28;20464;-73
2021/07/21 00:50:25;;;;;;;10.18;4.15;;;16.70;99.90;;;15.58;97.38;102417.09;5011395;28;20382;-72
2021/07/21 00:52:52;;;;;;;8.10;3.70;;;16.70;99.90;;;15.56;97.86;102405.69;5011836;28;20494;-72
2021/07/21 00:55:19;;;;;;;6.38;3.72;;;16.70;99.90;;;15.56;97.74;102405.69;5010520;28;20489;-72
2021/07/21 00:57:46;;;;;;;5.95;3.42;;;16.70;99.90;;;15.63;97.57;102430.19;5011927;28;20105;-72
2021/07/21 01:00:19;;;;;;;7.25;3.63;;;16.70;99.90;;;15.63;97.78;102408.94;5009564;28;20369;-72
2021/07/21 01:02:48;;;;;;;8.27;3.70;;;16.80;99.90;;;15.63;97.42;102403.63;4994189;28;20069;-72
2021/07/21 01:05:22;;;;;;;9.65;3.78;;;16.70;99.90;;;15.63;97.37;102408.94;4992727;28;20026;-72
2021/07/21 01:07:50;;;;;;;6.53;3.55;;;16.70;99.90;;;15.61;97.44;102389.56;5017345;28;20138;-71
2021/07/21 01:10:18;;;;;;;5.57;3.20;;;16.70;99.90;;;15.57;97.77;102407.41;4998486;28;20524;-72
2021/07/21 01:13:32;;;;;;;7.78;3.50;;;16.70;99.90;;;15.56;98.16;102392.41;4990822;28;20539;-72
2021/07/21 01:16:21;;;;;;;18.23;3.28;;;16.60;99.90;;;15.54;98.54;102410.19;5034231;28;20529;-72
2021/07/21 01:19:32;;;;;;;12.45;3.92;;;16.60;99.90;;;15.56;98.63;102396.84;4969711;28;20147;-72
2021/07/21 01:22:18;;;;;;;9.40;3.58;;;16.60;99.90;;;15.55;98.76;102419.00;4996679;28;20056;-72
2021/07/21 01:25:27;;;;;;;7.22;3.80;;;16.60;99.90;;;15.53;98.70;102397.84;4988732;28;20462;-73
2021/07/21 01:27:58;;;;;;;12.88;4.18;;;16.60;99.90;;;15.54;99.21;102391.59;4984860;28;20034;-72
2021/07/21 01:30:36;;;;;;;9.05;3.75;;;16.70;99.90;;;15.56;99.10;102397.72;4991078;28;20034;-71
2021/07/21 01:33:10;;;;;;;5.70;3.22;;;16.70;99.90;;;15.59;99.11;102391.41;5009207;28;20044;-72
2021/07/21 01:35:56;;;;;;;8.05;3.88;;;16.70;99.90;;;15.58;99.25;102400.31;5035160;28;20553;-72
2021/07/21 01:38:32;;;;;;;7.57;3.78;;;16.70;99.90;;;15.55;99.67;102417.25;5010803;28;20060;-72
2021/07/21 01:41:12;;;;;;;8.75;4.55;;;16.70;99.90;;;15.54;99.97;102410.19;5000457;28;20529;-73
2021/07/21 01:43:41;;;;;;;9.07;4.03;;;16.70;99.90;;;15.57;99.83;102406.53;5012897;28;20034;-72
2021/07/21 01:46:08;;;;;;;8.57;4.40;;;16.70;99.90;;;15.60;99.80;102406.44;5034979;28;20679;-72
2021/07/21 01:48:39;;;;;;;10.15;4.85;;;16.70;99.90;;;15.61;99.81;102402.84;5009387;28;20037;-71
2021/07/21 01:51:10;;;;;;;9.82;4.03;;;16.70;99.90;;;15.59;100.00;102402.03;5009571;28;20026;-72
2021/07/21 01:53:38;;;;;;;11.88;4.85;;;16.80;99.90;;;15.58;99.99;102432.19;5009876;28;20064;-72
2021/07/21 01:56:10;;;;;;;9.55;4.20;;;16.70;99.90;;;15.54;100.00;102417.28;5010549;28;20457;-72
2021/07/21 01:58:38;;;;;;;7.28;4.10;;;16.70;99.90;;;15.52;100.00;102427.97;5008797;28;20054;-72
2021/07/21 02:01:12;;;;;;;9.35;3.60;;;16.70;99.90;;;15.50;100.00;102415.69;5009649;28;20072;-72
2021/07/21 02:03:41;;;;;;;7.68;3.88;;;16.60;99.90;;;15.43;100.00;102431.00;5029015;28;20083;-72
2021/07/21 02:06:09;;;;;;;10.77;4.38;;;16.60;99.90;;;15.42;100.00;102404.50;5009930;28;20034;-72
2021/07/21 02:08:36;;;;;;;7.63;3.75;;;17.60;99.90;;;15.41;100.00;102398.34;5012649;28;20108;-72
2021/07/21 02:11:05;;;;;;;9.85;4.22;;;16.60;99.90;;;15.42;100.00;102401.84;4984434;28;20565;-71
2021/07/21 02:13:33;;;;;;;9.18;3.78;;;16.60;99.90;;;15.38;100.00;102391.38;5008715;28;20163;-72
2021/07/21 02:16:04;;;;;;;6.07;2.78;;;16.50;99.90;;;15.31;100.00;102375.75;5000072;28;20025;-72
2021/07/21 02:18:30;;;;;;;5.47;3.13;;;16.40;99.90;;;15.23;100.00;102377.88;5010680;28;20056;-72
2021/07/21 02:21:00;;;;;;;5.25;2.92;;;16.30;99.90;;;15.13;100.00;102369.38;4999577;28;20071;-72
2021/07/21 02:23:29;;;;;;;7.00;3.42;;;16.30;99.90;;;15.12;100.00;102376.50;4994556;28;20528;-72
2021/07/21 02:26:00;;;;;;;5.30;3.38;;;16.30;99.90;;;15.10;100.00;102380.13;4992695;28;20043;-71
2021/07/21 02:28:29;;;;;;;5.50;2.83;;;16.20;99.90;;;15.05;100.00;102413.91;5006156;28;20084;-72
2021/07/21 02:31:01;;;;;;;8.15;2.83;;;16.20;99.90;;;15.01;100.00;102409.66;4981650;28;20030;-72
2021/07/21 02:33:38;;;;;;;7.13;2.83;;;16.20;99.90;;;14.93;100.00;102397.56;4976232;28;20179;-72
2021/07/21 02:36:05;;;;;;;8.63;2.42;;;16.00;99.90;;;14.89;100.00;102392.44;5011268;28;20034;-72
2021/07/21 02:38:31;;;;;;;5.28;2.40;;;16.00;99.90;;;14.88;99.85;102393.34;4993232;28;20029;-72
2021/07/21 02:40:57;;;;;;;4.95;2.47;;;16.10;99.90;;;14.88;100.00;102390.69;4991391;28;20105;-72
2021/07/21 02:43:24;;;;;;;3.88;2.50;;;16.00;99.90;;;14.84;100.00;102431.50;4998614;28;20030;-72
2021/07/21 02:45:50;;;;;;;5.47;2.20;;;16.00;99.90;;;14.71;100.00;102407.25;4982804;28;20033;-71
2021/07/21 02:48:16;;;;;;;5.80;2.70;;;15.90;99.90;;;14.68;100.00;102424.13;4998985;28;20028;-73
2021/07/21 02:50:47;;;;;;;6.07;2.22;;;15.90;99.90;;;14.64;100.00;102424.28;5001105;28;20446;-73
2021/07/21 02:53:22;;;;;;;7.30;2.72;;;15.80;99.90;;;14.56;100.00;102425.44;5008210;28;20075;-72
2021/07/21 02:55:54;;;;;;;5.15;2.50;;;15.80;99.90;;;14.54;100.00;102405.19;4993377;28;20091;-72
2021/07/21 02:58:50;;;;;;;6.82;2.72;;;15.70;99.90;;;14.54;100.00;102414.00;5033240;28;20033;-72
2021/07/21 03:01:21;;;;;;;5.40;2.55;;;15.70;99.90;;;14.52;100.00;102407.03;5009996;28;20056;-72
2021/07/21 03:03:49;;;;;;;6.10;2.38;;;15.70;99.90;;;14.52;100.00;102445.00;4988870;28;20087;-72
2021/07/21 03:06:20;;;;;;;7.95;2.45;;;15.70;99.90;;;14.51;100.00;102443.28;4992632;28;20053;-72
2021/07/21 03:08:48;;;;;;;4.43;2.67;;;15.70;99.90;;;14.52;100.00;102474.16;5008519;28;20079;-73
2021/07/21 03:11:17;;;;;;;6.90;2.60;;;15.70;99.90;;;14.55;100.00;102454.66;5025364;28;20523;-72
2021/07/21 03:13:51;;;;;;;6.88;2.85;;;15.70;99.90;;;14.57;100.00;102480.19;5008167;28;20179;-72
2021/07/21 03:16:25;;;;;;;5.65;2.53;;;15.80;99.90;;;14.57;100.00;102477.53;5012892;28;20060;-72
2021/07/21 03:18:56;;;;;;;4.25;2.50;;;15.70;99.90;;;14.54;100.00;102445.81;4996079;28;20455;-72
2021/07/21 03:21:24;;;;;;;8.02;2.70;;;15.80;99.90;;;14.60;100.00;102451.84;5009785;28;20050;-73
2021/07/21 03:23:51;;;;;;;5.85;2.72;;;15.80;99.90;;;14.65;100.00;102460.50;5026325;28;20045;-72
2021/07/21 03:26:20;;;;;;;5.22;3.15;;;15.90;99.90;;;14.69;100.00;102499.25;5015894;28;20040;-72
2021/07/21 03:28:51;;;;;;;5.25;3.03;;;15.90;99.90;;;14.71;100.00;102465.59;5013443;28;20059;-72
2021/07/21 03:31:18;;;;;;;6.05;2.10;;;15.90;99.90;;;14.68;100.00;102460.38;4998017;28;20112;-73
2021/07/21 03:33:53;;;;;;;5.05;2.65;;;15.80;99.90;;;14.66;100.00;102470.19;5012034;28;20106;-72
2021/07/21 03:36:20;;;;;;;6.32;2.90;;;15.90;99.90;;;14.67;100.00;102501.09;5022211;28;20147;-73
2021/07/21 03:38:46;;;;;;;4.65;2.58;;;15.90;99.90;;;14.72;100.00;102467.31;5010658;28;20029;-72
2021/07/21 03:41:13;;;;;;;5.05;2.72;;;16.00;99.90;;;14.78;100.00;102504.22;5012770;28;20079;-72
2021/07/21 03:43:40;;;;;;;7.40;2.95;;;16.00;99.90;;;14.83;100.00;102496.94;5010033;28;20057;-73
2021/07/21 03:46:07;;;;;;;6.30;3.08;;;16.00;99.90;;;14.88;100.00;102505.63;4997479;28;20125;-73
2021/07/21 03:48:33;;;;;;;5.22;3.05;;;16.10;99.90;;;14.93;100.00;102486.88;5002987;28;20032;-73
2021/07/21 03:51:00;;;;;;;6.85;3.10;;;16.10;99.90;;;14.96;100.00;102478.78;5004137;28;20040;-73
2021/07/21 03:53:31;;;;;;;5.72;2.53;;;16.10;99.90;;;14.99;100.00;102478.69;4993040;28;20087;-72
2021/07/21 03:55:57;;;;;;;9.68;2.67;;;16.10;99.90;;;15.03;100.00;102482.09;4991827;28;20060;-72
2021/07/21 03:58:23;;;;;;;6.80;2.72;;;16.10;99.90;;;15.04;100.00;102483.84;4974827;28;20034;-72
2021/07/21 04:00:52;;;;;;;8.10;3.33;;;16.20;99.90;;;15.10;100.00;102502.19;4975510;28;20060;-72
2021/07/21 04:03:21;;;;;;;5.45;2.75;;;16.30;99.90;;;15.25;100.00;102506.91;4993857;28;20053;-73
2021/07/21 04:05:50;;;;;;;3.20;2.38;;;16.40;99.90;;;15.32;100.00;102508.38;4975279;28;20495;-73
2021/07/21 04:08:18;;;;;;;8.05;2.58;;;16.50;99.90;;;15.33;100.00;102507.47;4993695;28;20967;-72
2021/07/21 04:10:47;;;;;;;4.63;2.65;;;16.40;99.90;;;15.31;100.00;102509.31;4989095;28;20569;-72
2021/07/21 04:13:16;;;;;;;4.18;2.35;;;16.40;99.90;;;15.24;100.00;102496.34;5031785;28;20092;-73
2021/07/21 04:15:43;;;;;;;4.45;2.55;;;16.30;99.90;;;15.22;100.00;102522.91;4983731;28;22397;-72
2021/07/21 04:18:10;;;;;;;4.90;2.63;;;16.30;99.90;;;15.19;100.00;102515.09;4980338;28;20072;-72
2021/07/21 04:20:36;;;;;;;11.85;3.28;;;16.20;99.90;;;15.20;100.00;102500.03;5008209;28;20049;-72
2021/07/21 04:23:03;;;;;;;6.20;2.70;;;16.20;99.90;;;15.20;100.00;102511.50;4997667;28;20032;-72
2021/07/21 04:25:31;;;;;;;12.02;3.13;;;16.30;99.90;;;15.30;100.00;102518.19;5010490;28;20029;-72
2021/07/21 04:27:58;;;;;;;4.97;2.72;;;16.30;99.90;;;15.32;100.00;102505.72;5005741;28;20018;-72
2021/07/21 04:30:31;;;;;;;3.45;2.58;;;16.40;99.90;;;15.41;100.00;102514.28;5003752;28;20477;-72
2021/07/21 04:32:59;;;;;;;7.28;2.72;;;16.50;99.90;;;15.54;100.00;102519.03;5010295;28;20060;-73
2021/07/21 04:35:29;;;;;;;10.40;2.70;;;16.70;99.90;;;15.64;100.00;102527.53;4995817;28;20048;-72
2021/07/21 04:37:56;;;;;;;4.43;2.60;;;16.70;99.90;;;15.64;100.00;102516.91;5018789;28;20033;-73
2021/07/21 04:40:23;;;;;;;5.32;3.10;;;16.70;99.90;;;15.69;100.00;102699.94;5011741;28;20037;-73
2021/07/21 04:42:49;;;;;;;3.67;2.53;;;16.80;99.90;;;15.89;100.00;102639.00;5003288;28;20068;-73
2021/07/21 04:45:16;;;;;;;3.95;2.70;;;17.30;99.90;;;16.38;98.26;102593.66;5002409;28;20034;-73
2021/07/21 04:47:43;;;;;;;5.57;2.30;;;17.60;99.90;;;16.56;96.18;102603.50;5011885;28;20030;-73
2021/07/21 04:50:14;;;;;;;4.05;2.22;;;17.70;99.90;;;16.64;96.10;102599.69;5011090;28;20091;-72
2021/07/21 04:52:42;;;;;;;7.22;2.70;;;17.80;99.90;;;16.74;95.87;102603.69;5010098;28;20100;-72
2021/07/21 04:55:09;;;;;;;3.97;2.33;;;18.00;99.90;;;17.22;93.87;102635.28;5003142;28;20025;-73
2021/07/21 04:57:35;;;;;;;5.47;2.50;;;18.70;99.90;;;17.94;88.43;102662.28;5011502;28;20034;-73
2021/07/21 05:00:01;;;;;;;6.05;2.50;;;18.80;99.90;;;17.88;88.31;102654.56;5009990;28;20113;-72
2021/07/21 05:02:27;;;;;;;5.50;2.35;;;18.80;99.90;;;17.63;88.77;102629.03;5032271;28;20188;-72
2021/07/21 05:04:53;;;;;;;5.72;2.75;;;18.60;99.90;;;17.40;90.66;102606.97;5023994;28;20564;-72
2021/07/21 05:07:19;;;;;;;5.20;2.50;;;18.40;99.90;;;17.29;91.65;102600.41;5010596;28;20029;-73
2021/07/21 05:09:45;;;;;;;4.43;2.55;;;18.30;99.90;;;17.04;93.56;102579.34;5007428;28;20030;-73
2021/07/21 05:12:11;;;;;;;4.38;2.22;;;18.10;99.90;;;16.93;92.58;102585.16;5011410;28;20540;-73
2021/07/21 05:14:37;;;;;;;5.00;2.38;;;18.00;99.90;;;16.84;92.46;102549.16;4994325;28;20120;-72
2021/07/21 05:17:03;;;;;;;3.33;2.25;;;17.90;99.90;;;16.81;93.74;102552.81;4994033;28;20481;-72
2021/07/21 05:19:29;;;;;;;4.20;2.55;;;17.80;99.90;;;16.68;93.21;102550.75;5009683;28;20534;-73
2021/07/21 05:21:56;;;;;;;4.18;2.40;;;17.80;99.90;;;16.64;92.37;102533.19;5009913;28;20042;-72
2021/07/21 05:24:24;;;;;;;7.22;2.60;;;17.70;99.90;;;16.59;93.06;102542.22;5010993;28;20033;-72
2021/07/21 05:26:50;;;;;;;5.30;2.10;;;17.70;99.90;;;16.65;92.46;102548.22;4993960;28;20022;-72
2021/07/21 05:29:16;;;;;;;3.45;2.15;;;17.70;99.90;;;16.57;92.62;102532.59;5010788;28;20126;-72
2021/07/21 05:31:42;;;;;;;3.60;2.03;;;17.70;99.90;;;16.56;91.95;102534.38;4991158;28;20029;-73
2021/07/21 05:34:08;;;;;;;4.68;2.58;;;17.60;99.90;;;16.55;92.24;102539.78;5013112;28;20037;-72
2021/07/21 05:36:37;;;;;;;4.60;2.20;;;17.60;99.90;;;16.46;92.09;102518.88;5009028;28;20099;-72
2021/07/21 05:39:06;;;;;;;6.80;2.42;;;17.60;99.90;;;16.38;93.51;102522.75;5007365;28;20026;-72
2021/07/21 05:41:33;;;;;;;6.53;2.72;;;17.60;99.90;;;16.32;93.06;102507.03;4991525;28;20041;-72
2021/07/21 05:43:59;;;;;;;5.75;2.30;;;17.40;99.90;;;16.26;92.81;102506.44;5010396;28;20453;-73
2021/07/21 05:46:25;;;;;;;8.43;2.45;;;17.30;99.90;;;16.14;93.59;102515.81;5002068;28;20178;-72
2021/07/21 05:48:51;;;;;;;5.13;2.47;;;17.20;99.90;;;16.00;94.09;102497.75;5009091;28;20101;-72
2021/07/21 05:51:17;;;;;;;4.68;2.80;;;17.10;99.90;;;15.76;94.67;102478.38;5007839;28;20443;-72
2021/07/21 05:53:43;;;;;;;5.47;2.33;;;17.00;99.90;;;15.73;95.74;102527.19;5010447;28;20037;-72
2021/07/21 05:56:16;;;;;;;3.40;2.55;;;16.90;99.90;;;15.53;96.83;102466.03;5013404;28;20038;-72
2021/07/21 05:58:42;;;;;;;6.47;2.60;;;16.70;99.90;;;15.33;97.57;102466.78;5011123;28;20556;-72
2021/07/21 06:01:08;;;;;;;4.10;2.50;;;16.40;99.90;;;15.10;99.44;102473.84;5008540;28;20116;-71
2021/07/21 06:03:34;;;;;;;4.95;2.45;;;16.30;99.90;;;14.97;99.99;102461.97;5010522;28;20032;-72
2021/07/21 06:06:00;;;;;;;4.25;2.65;;;16.20;99.90;;;14.92;100.00;102470.13;5009261;28;20094;-72
2021/07/21 06:08:26;;;;;;;8.77;2.67;;;16.10;99.90;;;14.85;100.00;102499.56;4994207;28;20025;-72
2021/07/21 06:10:52;;;;;;;5.75;2.60;;;16.00;99.90;;;14.75;100.00;102517.56;5009339;28;20032;-73
2021/07/21 06:13:18;;;;;;;7.05;2.25;;;15.80;99.90;;;14.32;100.00;102468.69;5015218;28;20037;-72
2021/07/21 06:15:44;;;;;;;7.97;2.78;;;15.50;99.90;;;14.12;100.00;102552.38;5002986;28;20029;-72
2021/07/21 06:18:10;;;;;;;4.72;2.63;;;15.30;99.90;;;14.02;100.00;102568.59;5009628;28;20028;-72
2021/07/21 06:20:37;;;;;;;3.97;2.42;;;15.40;99.90;;;14.26;100.00;102553.69;4997745;28;20509;-72
2021/07/21 06:23:04;;;;;;;5.45;2.60;;;15.40;99.90;;;14.37;100.00;102543.59;5022888;28;20079;-73
2021/07/21 06:25:32;;;;;;;6.60;3.20;;;15.50;99.90;;;14.50;100.00;102544.91;5010045;28;20044;-72
2021/07/21 06:27:58;;;;;;;6.20;2.72;;;15.70;99.90;;;14.73;100.00;102560.06;4992733;28;20057;-73
2021/07/21 06:30:24;;;;;;;10.45;3.15;;;15.80;99.90;;;14.87;100.00;102564.88;5009824;28;20070;-73
2021/07/21 06:32:50;;;;;;;7.32;3.28;;;16.00;99.90;;;15.17;100.00;102592.09;5007837;28;20051;-72
2021/07/21 06:35:16;;;;;;;8.38;3.10;;;16.30;99.90;;;15.31;100.00;102596.91;4994959;28;20056;-73
2021/07/21 06:37:42;;;;;;;8.55;3.40;;;16.30;99.90;;;15.37;100.00;102580.72;5007625;28;20187;-73
2021/07/21 06:40:09;;;;;;;4.82;2.80;;;16.40;99.90;;;15.49;100.00;102583.88;5008432;28;20022;-73
2021/07/21 06:42:36;;;;;;;6.43;2.78;;;16.50;99.90;;;15.57;100.00;102589.72;4998946;28;20064;-72
2021/07/21 06:45:04;;;;;;;8.23;2.67;;;16.60;99.90;;;15.68;100.00;102598.19;4989507;28;20030;-72
2021/07/21 06:47:30;;;;;;;4.82;2.40;;;16.80;99.90;;;15.93;100.00;102615.84;4980987;28;20086;-72
2021/07/21 06:49:56;;;;;;;4.65;2.47;;;17.00;99.90;;;16.16;99.97;102631.75;4989058;28;20045;-73
2021/07/21 06:52:23;;;;;;;4.55;2.30;;;17.20;99.90;;;16.37;99.34;102630.03;4993314;28;20444;-72
2021/07/21 06:54:49;;;;;;;5.28;2.72;;;17.40;99.90;;;16.51;98.99;102650.72;4996085;28;20489;-73
2021/07/21 06:57:15;;;;;;;2.83;2.17;;;17.40;99.90;;;16.41;96.50;102628.09;4978245;28;20030;-72
2021/07/21 06:59:41;;;;;;;4.43;2.17;;;17.30;99.90;;;16.44;96.37;102627.97;4991939;28;20109;-73
2021/07/21 07:02:08;;;;;;;3.25;1.95;;;17.40;99.90;;;16.54;95.92;102647.06;4994673;28;20026;-72
2021/07/21 07:04:35;;;;;;;7.22;2.35;;;17.50;99.90;;;16.58;97.31;102643.34;4993735;28;20101;-73
2021/07/21 07:07:01;;;;;;;3.55;2.45;;;17.60;99.90;;;16.72;96.49;102650.78;4976872;28;20030;-72
2021/07/21 07:09:27;;;;;;;4.70;2.30;;;17.70;99.90;;;16.78;95.95;102656.69;4994676;28;20033;-73
2021/07/21 07:11:54;;;;;;;4.70;2.78;;;17.80;99.90;;;16.91;93.34;102662.41;4983734;28;20018;-73
2021/07/21 07:14:20;;;;;;;3.58;2.15;;;18.00;99.90;;;17.13;93.63;102680.09;4994147;28;20041;-73
2021/07/21 07:16:47;;;;;;;5.38;2.53;;;18.10;99.90;;;17.29;91.34;102694.47;4993949;28;20037;-73
2021/07/21 07:19:13;;;;;;;4.07;2.13;;;18.30;99.90;;;17.49;90.84;102690.06;4993840;28;20113;-73
2021/07/21 07:21:40;;;;;;;6.07;2.22;;;18.60;99.90;;;17.86;91.98;102717.72;4985450;28;20448;-73
2021/07/21 07:24:07;;;;;;;4.30;2.40;;;19.00;99.90;;;18.11;87.88;102726.31;4967997;28;20030;-73
2021/07/21 07:26:35;;;;;;;9.20;2.33;;;19.10;99.90;;;18.26;86.70;102723.88;4987520;28;20036;-73
2021/07/21 07:29:02;;;;;;;4.15;2.30;;;19.10;99.90;;;18.12;85.74;102708.50;5020217;28;20025;-73
2021/07/21 07:31:28;;;;;;;3.70;2.03;;;19.10;99.90;;;18.39;85.64;102730.34;5011409;28;20029;-73
2021/07/21 07:33:54;;;;;;;4.43;2.53;;;19.40;99.90;;;18.69;82.08;102746.69;4995421;28;20034;-73
2021/07/21 07:36:25;;;;;;;3.53;2.47;;;19.60;99.90;;;19.09;80.63;103152.38;4997201;28;20552;-73
2021/07/21 07:38:52;;;;;;;3.80;2.25;;;20.10;99.90;;;20.49;74.67;102871.91;4977047;28;20122;-72
2021/07/21 07:41:20;;;;;;;4.65;2.55;;;21.40;99.90;;;21.68;68.02;102875.94;4993537;28;20080;-74
2021/07/21 07:43:52;;;;;;;4.35;2.00;;;22.10;99.90;;;21.94;66.91;102831.44;4991450;28;20386;-73
2021/07/21 07:46:19;;;;;;;5.03;2.47;;;22.20;99.90;;;22.40;64.46;103348.47;4982315;28;20046;-73
2021/07/21 07:48:45;;;;;;;7.57;2.72;;;23.30;99.90;;;23.47;61.46;102984.66;4992489;28;20026;-74
2021/07/21 07:51:11;;;;;;;9.57;2.90;;;;;;;21.99;66.39;103662.75;4989512;28;20033;-73
2021/07/21 07:53:37;;;;;;;3.33;2.30;;;22.90;99.90;;;21.30;69.32;103393.50;5013699;28;20060;-74
2021/07/21 07:56:04;;;;;;;6.68;2.35;;;22.60;99.90;;;21.47;66.65;103146.09;5003497;28;20043;-73
2021/07/21 07:58:30;;;;;;;3.72;2.25;;;22.00;99.90;;;20.99;67.85;102933.47;5006891;28;20103;-73
2021/07/21 08:00:56;;;;;;;3.85;2.55;;;21.60;99.90;;;20.77;70.29;102907.91;5009407;28;20476;-73
2021/07/21 08:03:21;;;;;;;9.38;2.83;;;21.20;99.90;;;19.92;73.63;102835.81;5015808;28;20057;-72
2021/07/21 08:05:49;;;;;;;3.90;2.40;;;20.60;99.90;;;18.91;77.25;102761.66;5018554;28;20025;-73
2021/07/21 08:08:15;;;;;;;5.78;3.03;;;20.20;99.90;;;18.95;79.37;102766.78;5016925;28;20025;-73
2021/07/21 08:10:41;;;;;;;8.35;3.05;;;20.10;99.90;;;18.85;80.24;102717.44;5017300;28;20067;-73
2021/07/21 08:13:07;;;;;;;7.35;2.92;;;20.00;99.90;;;18.91;79.39;102697.59;5019046;28;20054;-73
2021/07/21 08:15:33;;;;;;;6.70;2.90;;;20.00;99.90;;;18.91;78.56;102679.78;5034016;28;20443;-73
2021/07/21 08:18:00;;;;;;;6.60;3.42;;;20.00;99.90;;;18.76;79.88;102571.13;5020071;28;20036;-73
2021/07/21 08:20:26;;;;;;;9.80;2.85;;;19.70;99.90;;;18.44;82.15;102657.19;5018136;28;20075;-73
2021/07/21 08:22:52;;;;;;;16.20;3.65;;;19.80;99.90;;;18.81;79.38;102683.84;5022727;28;20044;-72
2021/07/21 08:25:20;;;;;;;4.35;2.88;;;20.10;99.90;;;19.52;79.13;102730.94;5001456;28;20023;-73
2021/07/21 08:27:46;;;;;;;39.88;3.55;;;20.90;99.90;;;20.48;72.83;102760.47;5017567;28;20116;-72
2021/07/21 08:30:13;;;;;;;7.45;3.50;;;22.00;99.90;;;21.78;69.31;102842.25;5017374;28;20030;-73
2021/07/21 08:32:47;;;;;;;5.07;2.88;;;23.10;99.90;;;22.37;67.15;102801.94;5015288;28;20025;-73
2021/07/21 08:35:24;;;;;;;6.93;2.95;;;23.40;99.90;;;22.41;63.28;102829.47;5001814;28;20045;-73
2021/07/21 08:37:51;;;;;;;4.40;2.70;;;23.50;99.90;;;22.47;62.78;102804.91;5017852;28;20030;-73
2021/07/21 08:40:20;;;;;;;5.88;3.10;;;23.30;99.90;;;21.74;63.89;102719.19;5020310;28;20029;-73
2021/07/21 08:42:47;;;;;;;6.10;3.10;;;22.60;99.90;;;20.75;68.27;102627.84;5016695;28;20436;-73
2021/07/21 08:45:14;;;;;;;7.07;2.70;;;21.90;99.90;;;20.16;71.36;102595.59;5017838;28;20156;-73
2021/07/21 08:47:40;;;;;;;4.97;2.90;;;21.20;99.90;;;19.38;71.64;102539.38;5000418;28;20028;-73
2021/07/21 08:50:09;;;;;;;7.25;3.53;;;20.80;99.90;;;19.47;73.12;102562.91;5002611;28;20026;-73
2021/07/21 08:52:36;;;;;;;8.20;3.58;;;20.50;99.90;;;18.96;76.15;102525.59;5019016;28;20036;-73
2021/07/21 08:55:07;;;;;;;8.63;3.10;;;20.10;99.90;;;18.54;78.85;102496.66;5017145;28;20032;-73
2021/07/21 08:57:34;;;;;;;7.55;3.33;;;19.70;99.90;;;18.21;80.42;102479.66;5019344;28;20128;-72
2021/07/21 09:00:09;;;;;;;5.13;3.20;;;19.60;99.90;;;18.71;77.98;102550.00;5026252;28;20025;-73
2021/07/21 09:02:53;;;;;;;11.60;3.17;;;20.00;99.90;;;19.01;75.75;102558.25;4992101;28;20272;-73
2021/07/21 09:05:37;;;;;;;5.00;3.05;;;20.00;99.90;;;18.69;76.50;102511.03;4988357;28;20037;-73
2021/07/21 09:08:30;;;;;;;7.30;3.35;;;19.80;99.90;;;18.59;79.58;102519.47;4985861;28;20041;-73
2021/07/21 09:11:37;;;;;;;5.30;2.83;;;19.70;99.90;;;18.47;81.13;102496.13;5002169;28;20046;-73
2021/07/21 09:14:50;;;;;;;6.27;3.70;;;19.60;99.90;;;18.73;79.91;102528.59;4971207;28;20070;-73
2021/07/21 09:17:35;;;;;;;6.55;3.20;;;20.10;99.90;;;19.03;71.76;102531.47;4969799;28;20048;-72
2021/07/21 09:21:09;;;;;;;9.23;3.92;;;20.50;99.90;;;19.70;70.24;102518.00;4989932;28;20037;-73
2021/07/21 09:24:29;;;;;;;9.82;3.45;;;20.60;99.90;;;19.73;71.74;102507.16;4981661;28;20401;-73
2021/07/21 09:27:55;;;;;;;9.00;3.00;;;21.40;99.90;;;21.50;65.13;102612.56;4987301;28;20417;-73
2021/07/21 09:30:49;;;;;;;4.80;2.80;;;22.20;99.90;;;21.26;62.79;102556.00;4971075;28;20112;-72
2021/07/21 09:34:30;;;;;;;13.63;3.35;;;22.10;99.90;;;21.01;63.20;102536.09;4958953;28;20391;-72
2021/07/21 09:37:57;;;;;;;4.70;3.22;;;22.40;99.90;;;21.74;63.60;102591.38;4950476;28;20041;-72
2021/07/21 09:41:40;;;;;;;7.88;2.95;;;22.70;99.90;;;22.15;59.84;102595.84;4957272;28;20033;-72
2021/07/21 09:44:49;;;;;;;50.85;4.18;;;23.10;99.90;;;22.35;62.07;102577.59;4956335;28;20183;-72
2021/07/21 09:48:34;;;;;;;5.10;2.65;;;23.10;99.90;;;21.87;56.92;103007.09;4956715;28;20034;-73
2021/07/21 09:52:30;;;;;;;4.15;2.92;;;22.60;99.90;;;22.13;60.42;102858.00;4963125;28;20968;-73
2021/07/21 09:56:27;;;;;;;5.70;3.13;;;23.30;99.90;;;22.99;57.33;102876.72;4953071;28;20038;-72
2021/07/21 09:59:59;;;;;;;4.63;2.80;;;23.40;99.90;;;22.27;61.04;102766.81;4969476;28;20426;-73
2021/07/21 10:03:26;;;;;;;7.43;3.20;;;22.50;99.90;;;20.90;61.54;102629.59;4968752;28;20029;-72
2021/07/21 10:07:03;;;;;;;6.97;3.13;;;21.90;99.90;;;20.04;63.13;102541.00;4973987;28;20048;-72
2021/07/21 10:10:00;;;;;;;5.57;2.75;;;20.70;99.90;;;19.11;65.28;102393.06;4956602;28;21078;-72
2021/07/21 10:13:15;;;;;;;8.45;2.90;;;20.20;99.90;;;18.83;67.20;102495.16;4965767;28;20404;-72
2021/07/21 10:16:29;;;;;;;5.43;2.63;;;20.10;99.90;;;19.54;67.17;102571.44;4985428;28;20038;-72
2021/07/21 10:19:36;;;;;;;7.20;2.90;;;20.50;99.90;;;19.52;65.48;102546.59;4975631;28;20125;-72
2021/07/21 10:22:33;;;;;;;5.03;2.63;;;20.50;99.90;;;19.43;64.51;102513.25;4957706;28;21865;-73
2021/07/21 10:25:24;;;;;;;6.55;2.92;;;20.40;99.90;;;19.42;66.17;102504.38;4971256;28;20033;-72
2021/07/21 10:28:22;;;;;;;6.18;2.97;;;20.60;99.90;;;19.52;65.00;102503.84;4968200;28;20021;-72
2021/07/21 10:31:10;;;;;;;5.28;2.35;;;20.50;99.90;;;19.43;65.80;102490.06;4978389;28;20039;-73
2021/07/21 10:33:38;;;;;;;11.70;3.25;;;20.50;99.90;;;19.52;65.14;102495.84;4996628;28;20041;-73
2021/07/21 10:36:20;;;;;;;4.43;2.75;;;21.00;99.90;;;20.64;61.41;102580.31;4996498;28;20030;-72
2021/07/21 10:38:48;;;;;;;6.97;2.60;;;22.00;99.90;;;21.65;58.70;102616.09;5031868;28;20481;-72
2021/07/21 10:41:16;;;;;;;7.38;2.90;;;22.60;99.90;;;22.35;55.76;102658.09;5015321;28;20156;-73
2021/07/21 10:43:46;;;;;;;5.20;2.80;;;23.40;99.90;;;23.15;53.75;102653.56;4997085;28;20105;-72